createdAt,value
2022-10-22T00:01:39.371Z,82.08
2022-10-22T00:04:05.877Z,82.01
2022-10-22T00:06:32.342Z,82.03
2022-10-22T00:08:58.941Z,82.18
2022-10-22T00:11:25.750Z,83.10
2022-10-22T00:13:52.177Z,82.36
2022-10-22T00:16:18.706Z,81.85
2022-10-22T00:18:46.846Z,81.96
2022-10-22T00:21:13.368Z,81.80
2022-10-22T00:23:40.893Z,80.86
2022-10-22T00:26:07.305Z,81.23
2022-10-22T00:28:33.863Z,81.62
2022-10-22T00:31:01.198Z,81.98
2022-10-22T00:33:28.920Z,81.78
2022-10-22T00:35:56.945Z,81.57
2022-10-22T00:38:23.719Z,81.61
2022-10-22T00:40:50.433Z,81.76
2022-10-22T00:43:18.902Z,82.95
2022-10-22T00:45:45.947Z,82.69
2022-10-22T00:48:15.990Z,83.06
2022-10-22T00:50:47.130Z,82.43
2022-10-22T00:53:17.337Z,81.96
2022-10-22T00:55:47.553Z,81.55
2022-10-22T00:58:14.846Z,82.79
2022-10-22T01:00:41.942Z,82.56
2022-10-22T01:03:08.394Z,82.42
2022-10-22T01:05:41.068Z,82.60
2022-10-22T01:10:54.488Z,81.75
2022-10-22T01:13:32.756Z,82.07
2022-10-22T01:16:08.578Z,83.13
2022-10-22T01:18:42.745Z,81.82
2022-10-22T01:21:18.561Z,82.31
2022-10-22T01:24:21.560Z,81.88
2022-10-22T01:27:02.643Z,83.61
2022-10-22T01:29:37.156Z,82.27
2022-10-22T01:32:09.592Z,82.35
2022-10-22T01:34:40.298Z,82.05
2022-10-22T01:37:08.315Z,83.48
2022-10-22T01:39:36.672Z,82.49
2022-10-22T01:42:03.252Z,82.20
2022-10-22T01:44:33.226Z,82.42
2022-10-22T01:47:13.979Z,83.65
2022-10-22T01:50:00.861Z,82.60
2022-10-22T01:52:36.991Z,82.09
2022-10-22T01:55:14.702Z,81.74
2022-10-22T01:57:47.313Z,81.72
2022-10-22T02:00:18.872Z,82.18
2022-10-22T02:02:54.184Z,82.56
2022-10-22T02:05:24.915Z,82.99
2022-10-22T02:07:55.564Z,82.28
2022-10-22T02:10:23.515Z,82.35
2022-10-22T02:12:53.898Z,84.51
2022-10-22T02:15:25.408Z,82.98
2022-10-22T02:17:53.334Z,82.51
2022-10-22T02:20:25.827Z,82.87
2022-10-22T02:22:52.528Z,83.56
2022-10-22T02:25:21.999Z,82.62
2022-10-22T02:27:54.627Z,83.39
2022-10-22T02:30:23.339Z,83.71
2022-10-22T02:32:55.411Z,82.21
2022-10-22T02:35:24.308Z,82.47
2022-10-22T02:37:52.638Z,81.46
2022-10-22T02:40:20.024Z,81.85
2022-10-22T02:42:48.188Z,81.23
2022-10-22T02:45:15.065Z,81.28
2022-10-22T02:47:42.857Z,81.16
2022-10-22T02:50:10.371Z,81.64
2022-10-22T02:52:37.405Z,83.38
2022-10-22T02:55:05.843Z,82.07
2022-10-22T02:57:32.645Z,82.43
2022-10-22T02:59:59.138Z,81.89
2022-10-22T03:02:25.532Z,82.49
2022-10-22T03:04:53.296Z,82.73
2022-10-22T03:07:19.788Z,82.28
2022-10-22T03:09:46.257Z,81.83
2022-10-22T03:12:12.973Z,81.42
2022-10-22T03:14:39.384Z,81.00
2022-10-22T03:17:05.826Z,81.38
2022-10-22T03:19:32.319Z,81.97
2022-10-22T03:22:02.258Z,81.33
2022-10-22T03:24:33.304Z,82.58
2022-10-22T03:26:59.737Z,81.86
2022-10-22T03:29:27.630Z,81.60
2022-10-22T03:31:54.781Z,81.47
2022-10-22T03:34:21.639Z,81.09
2022-10-22T03:36:48.973Z,81.50
2022-10-22T03:39:18.388Z,81.07
2022-10-22T03:41:46.041Z,81.24
2022-10-22T03:44:12.800Z,80.94
2022-10-22T03:46:39.235Z,81.40
2022-10-22T03:49:05.638Z,81.13
2022-10-22T03:51:32.556Z,81.04
2022-10-22T03:53:59.097Z,81.00
2022-10-22T03:56:26.936Z,80.74
2022-10-22T03:58:56.144Z,81.55
2022-10-22T04:01:22.989Z,81.16
2022-10-22T04:03:49.484Z,83.25
2022-10-22T04:06:16.283Z,83.28
2022-10-22T04:08:45.047Z,83.21
2022-10-22T04:11:12.960Z,83.44
2022-10-22T04:13:41.154Z,83.23
2022-10-22T04:16:09.781Z,82.56
2022-10-22T04:18:36.276Z,82.14
2022-10-22T04:21:02.940Z,81.60
2022-10-22T04:23:29.434Z,81.52
2022-10-22T04:25:57.955Z,81.49
2022-10-22T04:28:24.457Z,83.22
2022-10-22T04:30:52.290Z,81.98
2022-10-22T04:33:19.157Z,84.37
2022-10-22T04:35:45.573Z,82.77
2022-10-22T04:38:13.620Z,83.33
2022-10-22T04:40:40.050Z,82.59
2022-10-22T04:43:06.478Z,83.69
2022-10-22T04:45:33.447Z,81.27
2022-10-22T04:48:01.292Z,83.33
2022-10-22T04:50:27.991Z,85.67
2022-10-22T04:52:54.421Z,83.77
2022-10-22T04:55:21.112Z,83.57
2022-10-22T04:57:47.676Z,84.50
2022-10-22T05:00:14.477Z,82.80
2022-10-22T05:02:40.895Z,81.89
2022-10-22T05:05:09.052Z,82.33
2022-10-22T05:07:35.493Z,81.62
2022-10-22T05:10:01.916Z,81.35
2022-10-22T05:12:28.339Z,81.46
2022-10-22T05:14:54.833Z,84.55
2022-10-22T05:17:21.285Z,84.50
2022-10-22T05:19:47.684Z,83.00
2022-10-22T05:22:15.487Z,82.38
2022-10-22T05:24:41.871Z,82.12
2022-10-22T05:27:08.358Z,82.18
2022-10-22T05:29:35.447Z,81.74
2022-10-22T05:32:01.916Z,81.76
2022-10-22T05:34:28.320Z,82.36
2022-10-22T05:36:54.802Z,81.03
2022-10-22T05:39:22.539Z,81.40
2022-10-22T05:41:48.950Z,80.87
2022-10-22T05:44:15.705Z,81.42
2022-10-22T05:46:42.119Z,80.83
2022-10-22T05:49:12.691Z,81.65
2022-10-22T05:51:39.189Z,82.89
2022-10-22T05:54:07.442Z,82.08
2022-10-22T05:56:35.628Z,81.35
2022-10-22T06:01:31.194Z,81.31
2022-10-22T06:03:59.401Z,83.08
2022-10-22T06:06:30.408Z,83.58
2022-10-22T06:09:00.938Z,84.91
2022-10-22T06:11:29.913Z,82.78
2022-10-22T06:14:00.439Z,82.03
2022-10-22T06:16:28.930Z,81.89
2022-10-22T06:18:55.340Z,82.58
2022-10-22T06:21:21.792Z,81.81
2022-10-22T06:23:48.256Z,81.73
2022-10-22T06:26:14.656Z,81.63
2022-10-22T06:28:41.232Z,81.44
2022-10-22T06:31:09.667Z,82.67
2022-10-22T06:33:36.174Z,81.47
2022-10-22T06:36:07.732Z,83.29
2022-10-22T06:38:34.494Z,81.24
2022-10-22T06:41:02.975Z,82.04
2022-10-22T06:43:29.402Z,81.22
2022-10-22T06:45:59.027Z,81.08
2022-10-22T06:48:26.820Z,81.63
2022-10-22T06:50:53.280Z,80.61
2022-10-22T06:55:47.336Z,81.67
2022-10-22T06:58:13.920Z,81.34
2022-10-22T07:00:40.508Z,80.46
2022-10-22T07:03:06.946Z,82.56
2022-10-22T07:05:34.964Z,82.49
2022-10-22T07:08:01.358Z,84.63
2022-10-22T07:10:30.011Z,83.38
2022-10-22T07:12:57.847Z,82.43
2022-10-22T07:15:24.333Z,86.29
2022-10-22T07:17:50.840Z,83.87
2022-10-22T07:20:17.396Z,80.23
2022-10-22T07:22:45.188Z,80.42
2022-10-22T07:25:11.595Z,79.23
2022-10-22T07:27:38.256Z,81.49
2022-10-22T07:30:06.051Z,83.99
2022-10-22T07:32:32.468Z,80.83
2022-10-22T07:34:59.113Z,80.96
2022-10-22T07:37:25.511Z,83.72
2022-10-22T07:39:53.282Z,82.10
2022-10-22T07:42:19.741Z,83.10
2022-10-22T07:44:46.198Z,84.01
2022-10-22T07:47:12.607Z,82.96
2022-10-22T07:49:39.099Z,82.76
2022-10-22T07:52:06.773Z,82.64
2022-10-22T07:54:33.237Z,82.59
2022-10-22T07:57:01.286Z,85.36
2022-10-22T07:59:27.751Z,83.67
2022-10-22T08:01:54.167Z,88.07
2022-10-22T08:04:20.645Z,87.90
2022-10-22T08:06:47.370Z,85.08
2022-10-22T08:09:14.612Z,84.82
2022-10-22T08:11:41.081Z,86.24
2022-10-22T08:14:08.875Z,86.01
2022-10-22T08:16:35.404Z,84.68
2022-10-22T08:19:01.884Z,82.67
2022-10-22T08:21:28.319Z,84.09
2022-10-22T08:23:54.836Z,82.71
2022-10-22T08:26:21.292Z,84.00
2022-10-22T08:28:47.737Z,84.94
2022-10-22T08:31:15.806Z,84.39
2022-10-22T08:33:42.267Z,84.52
2022-10-22T08:36:09.475Z,82.50
2022-10-22T08:38:36.017Z,80.95
2022-10-22T08:41:10.110Z,81.98
2022-10-22T08:44:11.776Z,81.10
2022-10-22T08:46:55.915Z,82.65
2022-10-22T08:49:26.094Z,81.99
2022-10-22T08:51:53.209Z,82.82
2022-10-22T08:54:27.438Z,82.35
2022-10-22T08:57:06.346Z,82.39
2022-10-22T08:59:41.276Z,81.58
2022-10-22T09:02:30.147Z,81.10
2022-10-22T09:05:10.043Z,81.38
2022-10-22T09:07:41.777Z,82.47
2022-10-22T09:10:11.280Z,80.83
2022-10-22T09:12:37.829Z,83.36
2022-10-22T09:15:04.698Z,81.61
2022-10-22T09:17:38.587Z,81.62
2022-10-22T09:20:14.468Z,81.03
2022-10-22T09:22:48.703Z,81.24
2022-10-22T09:25:20.139Z,78.44
2022-10-22T09:27:47.049Z,80.51
2022-10-22T09:30:17.501Z,80.40
2022-10-22T09:32:45.615Z,79.88
2022-10-22T09:35:14.420Z,77.42
2022-10-22T09:37:49.488Z,75.04
2022-10-22T09:40:16.907Z,77.38
2022-10-22T09:42:45.076Z,77.75
2022-10-22T09:45:21.539Z,76.00
2022-10-22T09:48:01.541Z,76.70
2022-10-22T09:50:38.330Z,75.65
2022-10-22T09:53:11.566Z,76.80
2022-10-22T09:55:38.407Z,75.97
2022-10-22T09:58:04.838Z,75.97
2022-10-22T10:00:31.512Z,75.22
2022-10-22T10:03:00.352Z,75.42
2022-10-22T10:05:30.323Z,78.35
2022-10-22T10:07:57.071Z,75.91
2022-10-22T10:10:34.920Z,75.22
2022-10-22T10:13:17.697Z,75.78
2022-10-22T10:15:54.300Z,74.87
2022-10-22T10:18:39.380Z,73.71
2022-10-22T10:23:51.664Z,76.02
2022-10-22T10:26:24.115Z,74.69
2022-10-22T10:29:00.318Z,74.99
2022-10-22T10:31:38.971Z,72.09
2022-10-22T10:34:17.679Z,72.76
2022-10-22T10:36:51.941Z,70.93
2022-10-22T10:39:27.954Z,71.62
2022-10-22T10:42:01.490Z,71.89
2022-10-22T10:44:46.682Z,72.78
2022-10-22T10:47:30.911Z,72.09
2022-10-22T10:50:12.704Z,71.96
2022-10-22T10:52:45.004Z,70.49
2022-10-22T10:55:18.936Z,72.81
2022-10-22T10:57:56.526Z,69.66
2022-10-22T11:00:23.799Z,73.17
2022-10-22T11:03:32.125Z,70.40
2022-10-22T11:06:02.780Z,70.16
2022-10-22T11:08:32.707Z,70.22
2022-10-22T11:11:03.089Z,71.26
2022-10-22T11:13:34.474Z,70.83
2022-10-22T11:16:05.331Z,72.33
2022-10-22T11:18:37.238Z,71.91
2022-10-22T11:21:13.660Z,67.90
2022-10-22T11:23:45.284Z,67.37
2022-10-22T11:26:17.455Z,67.72
2022-10-22T11:28:48.753Z,69.41
2022-10-22T11:31:17.740Z,67.72
2022-10-22T11:33:57.168Z,66.89
2022-10-22T11:39:03.005Z,69.47
2022-10-22T11:41:32.090Z,66.98
2022-10-22T11:44:08.416Z,63.82
2022-10-22T11:46:43.133Z,66.71
2022-10-22T11:49:19.443Z,64.85
2022-10-22T11:51:47.717Z,64.10
2022-10-22T11:54:37.973Z,65.69
2022-10-22T11:57:19.114Z,63.93
2022-10-22T11:59:50.235Z,63.02
2022-10-22T12:02:38.757Z,63.86
2022-10-22T12:05:36.024Z,64.59
2022-10-22T12:08:23.934Z,63.39
2022-10-22T12:11:02.747Z,63.82
2022-10-22T12:13:32.061Z,62.02
2022-10-22T12:16:02.297Z,62.09
2022-10-22T12:18:35.224Z,61.05
2022-10-22T12:21:01.673Z,62.49
2022-10-22T12:23:33.988Z,61.08
2022-10-22T12:26:00.432Z,61.14
2022-10-22T12:28:26.901Z,62.16
2022-10-22T12:30:53.307Z,61.23
2022-10-22T12:33:21.636Z,63.01
2022-10-22T12:35:50.292Z,62.32
2022-10-22T12:38:18.904Z,64.06
2022-10-22T12:40:48.675Z,62.92
2022-10-22T12:43:18.323Z,61.88
2022-10-22T12:45:46.751Z,62.07
2022-10-22T12:48:18.172Z,62.43
2022-10-22T12:50:47.188Z,60.41
2022-10-22T12:53:15.545Z,60.35
2022-10-22T12:55:42.081Z,60.46
2022-10-22T12:58:17.065Z,62.37
2022-10-22T13:00:46.032Z,62.32
2022-10-22T13:03:25.687Z,60.86
2022-10-22T13:05:52.350Z,60.02
2022-10-22T13:08:22.408Z,61.39
2022-10-22T13:10:50.776Z,58.83
2022-10-22T13:13:32.807Z,60.38
2022-10-22T13:16:13.553Z,60.30
2022-10-22T13:18:40.468Z,61.92
2022-10-22T13:21:22.807Z,61.07
2022-10-22T13:23:52.847Z,63.11
2022-10-22T13:26:19.638Z,63.58
2022-10-22T13:28:53.412Z,63.75
2022-10-22T13:31:23.311Z,63.90
2022-10-22T13:33:53.606Z,64.99
2022-10-22T13:36:20.130Z,65.13
2022-10-22T13:38:46.554Z,67.04
2022-10-22T13:41:23.637Z,65.08
2022-10-22T13:43:52.399Z,66.05
2022-10-22T13:46:19.979Z,67.50
2022-10-22T13:48:47.708Z,66.56
2022-10-22T13:51:16.291Z,65.59
2022-10-22T13:53:44.604Z,64.01
2022-10-22T13:56:14.183Z,65.83
2022-10-22T13:58:40.658Z,64.91
2022-10-22T14:01:19.825Z,64.71
2022-10-22T14:03:47.920Z,64.44
2022-10-22T14:06:16.134Z,63.92
2022-10-22T14:08:44.838Z,64.78
2022-10-22T14:11:12.386Z,65.87
2022-10-22T14:13:39.202Z,66.12
2022-10-22T14:16:07.028Z,64.18
2022-10-22T14:18:35.743Z,64.71
2022-10-22T14:21:05.463Z,65.60
2022-10-22T14:23:32.257Z,68.94
2022-10-22T14:25:59.500Z,67.44
2022-10-22T14:28:25.972Z,65.04
2022-10-22T14:30:52.779Z,65.34
2022-10-22T14:33:24.734Z,64.89
2022-10-22T14:35:55.156Z,63.87
2022-10-22T14:38:22.481Z,63.32
2022-10-22T14:40:49.711Z,64.54
2022-10-22T14:43:20.520Z,66.48
2022-10-22T14:45:46.916Z,65.66
2022-10-22T14:48:13.404Z,65.47
2022-10-22T14:50:39.836Z,64.79
2022-10-22T14:53:07.668Z,64.06
2022-10-22T14:55:34.178Z,65.83
2022-10-22T14:58:00.602Z,65.53
2022-10-22T15:00:27.153Z,63.81
2022-10-22T15:02:53.596Z,63.83
2022-10-22T15:05:20.054Z,64.33
2022-10-22T15:07:46.490Z,65.10
2022-10-22T15:10:14.461Z,65.58
2022-10-22T15:12:41.031Z,64.55
2022-10-22T15:15:08.172Z,62.86
2022-10-22T15:17:34.763Z,63.15
2022-10-22T15:20:01.223Z,63.52
2022-10-22T15:22:27.612Z,64.63
2022-10-22T15:24:54.240Z,63.35
2022-10-22T15:27:21.982Z,63.76
2022-10-22T15:29:48.447Z,62.34
2022-10-22T15:32:15.043Z,62.55
2022-10-22T15:34:41.440Z,62.86
2022-10-22T15:37:10.270Z,62.90
2022-10-22T15:39:39.436Z,61.93
2022-10-22T15:42:05.997Z,62.46
2022-10-22T15:44:33.886Z,62.42
2022-10-22T15:47:03.188Z,63.39
2022-10-22T15:49:29.970Z,63.73
2022-10-22T15:51:56.375Z,67.57
2022-10-22T15:54:25.247Z,64.64
2022-10-22T15:56:52.087Z,63.92
2022-10-22T15:59:18.640Z,62.82
2022-10-22T16:01:47.092Z,63.13
2022-10-22T16:04:13.902Z,62.64
2022-10-22T16:06:42.878Z,63.41
2022-10-22T16:09:11.178Z,63.26
2022-10-22T16:11:39.139Z,63.54
2022-10-22T16:14:06.117Z,62.93
2022-10-22T16:16:35.051Z,63.95
2022-10-22T16:19:03.502Z,64.67
2022-10-22T16:21:29.892Z,65.00
2022-10-22T16:23:56.286Z,64.05
2022-10-22T16:26:22.761Z,65.86
2022-10-22T16:28:49.262Z,64.35
2022-10-22T16:31:17.836Z,65.43
2022-10-22T16:33:47.810Z,66.88
2022-10-22T16:36:20.213Z,67.25
2022-10-22T16:38:47.988Z,67.59
2022-10-22T16:41:16.183Z,65.04
2022-10-22T16:43:43.745Z,68.04
2022-10-22T16:46:10.202Z,67.43
2022-10-22T16:48:37.543Z,67.29
2022-10-22T16:51:06.572Z,65.90
2022-10-22T16:56:08.653Z,67.58
2022-10-22T16:58:35.063Z,68.11
2022-10-22T17:01:06.065Z,70.75
2022-10-22T17:03:32.520Z,69.14
2022-10-22T17:05:59.296Z,71.26
2022-10-22T17:08:25.712Z,71.46
2022-10-22T17:10:53.457Z,69.16
2022-10-22T17:13:19.934Z,68.77
2022-10-22T17:15:46.412Z,69.02
2022-10-22T17:18:12.858Z,70.63
2022-10-22T17:20:40.989Z,69.46
2022-10-22T17:23:07.491Z,70.65
2022-10-22T17:25:40.868Z,70.99
2022-10-22T17:28:09.020Z,70.41
2022-10-22T17:30:35.449Z,69.70
2022-10-22T17:33:01.892Z,72.06
2022-10-22T17:35:28.416Z,71.15
2022-10-22T17:37:54.834Z,69.64
2022-10-22T17:40:21.752Z,70.67
2022-10-22T17:42:48.649Z,70.00
2022-10-22T17:45:16.443Z,68.94
2022-10-22T17:47:43.126Z,69.85
2022-10-22T17:50:10.036Z,69.72
2022-10-22T17:52:36.471Z,70.61
2022-10-22T17:55:03.105Z,69.86
2022-10-22T17:57:29.536Z,69.33
2022-10-22T17:59:55.963Z,67.46
2022-10-22T18:02:23.794Z,68.66
2022-10-22T18:04:51.190Z,68.33
2022-10-22T18:07:17.795Z,68.73
2022-10-22T18:09:45.195Z,68.59
2022-10-22T18:12:12.567Z,68.78
2022-10-22T18:14:39.862Z,69.35
2022-10-22T18:17:06.498Z,69.73
2022-10-22T18:19:34.302Z,70.10
2022-10-22T18:22:00.743Z,69.86
2022-10-22T18:24:27.410Z,69.84
2022-10-22T18:26:54.017Z,69.34
2022-10-22T18:29:20.560Z,69.71
2022-10-22T18:31:47.882Z,69.88
2022-10-22T18:34:15.129Z,69.09
2022-10-22T18:36:43.456Z,69.61
2022-10-22T18:39:13.486Z,69.85
2022-10-22T18:41:39.925Z,69.13
2022-10-22T18:44:07.182Z,69.14
2022-10-22T18:46:34.937Z,68.31
2022-10-22T18:49:01.652Z,68.44
2022-10-22T18:51:29.562Z,69.17
2022-10-22T18:54:05.338Z,68.48
2022-10-22T18:56:38.812Z,68.38
2022-10-22T18:59:05.327Z,67.56
2022-10-22T19:01:31.740Z,68.67
2022-10-22T19:03:58.165Z,68.37
2022-10-22T19:06:26.738Z,67.91
2022-10-22T19:08:53.190Z,68.46
2022-10-22T19:11:21.241Z,68.31
2022-10-22T19:13:47.696Z,68.25
2022-10-22T19:16:18.221Z,68.25
2022-10-22T19:18:44.617Z,68.32
2022-10-22T19:21:11.444Z,68.30
2022-10-22T19:23:37.903Z,68.95
2022-10-22T19:26:07.182Z,68.58
2022-10-22T19:28:35.921Z,67.85
2022-10-22T19:31:04.844Z,68.98
2022-10-22T19:33:31.251Z,68.62
2022-10-22T19:35:57.663Z,67.44
2022-10-22T19:38:24.097Z,67.63
2022-10-22T19:40:50.505Z,67.66
2022-10-22T19:43:19.010Z,67.14
2022-10-22T19:45:46.935Z,67.44
2022-10-22T19:48:13.342Z,67.52
2022-10-22T19:50:39.758Z,66.39
2022-10-22T19:53:06.160Z,66.35
2022-10-22T19:55:32.752Z,66.68
2022-10-22T19:57:59.212Z,67.58
2022-10-22T20:00:25.649Z,67.69
2022-10-22T20:02:53.387Z,67.22
2022-10-22T20:05:19.868Z,67.32
2022-10-22T20:07:46.343Z,67.37
2022-10-22T20:10:12.760Z,66.91
2022-10-22T20:12:39.203Z,66.43
2022-10-22T20:15:06.828Z,67.42
2022-10-22T20:17:33.249Z,68.75
2022-10-22T20:20:01.231Z,66.43
2022-10-22T20:22:27.767Z,67.92
2022-10-22T20:24:54.278Z,67.39
2022-10-22T20:27:21.066Z,68.26
2022-10-22T20:29:47.547Z,68.42
2022-10-22T20:32:14.088Z,68.15
2022-10-22T20:34:40.604Z,67.60
2022-10-22T20:37:08.451Z,68.52
2022-10-22T20:39:34.882Z,68.20
2022-10-22T20:42:01.467Z,68.14
2022-10-22T20:44:28.218Z,68.08
2022-10-22T20:46:54.673Z,68.31
2022-10-22T20:49:21.123Z,68.97
2022-10-22T20:51:47.685Z,67.18
2022-10-22T20:54:15.821Z,67.64
2022-10-22T20:56:43.217Z,67.10
2022-10-22T20:59:10.608Z,68.58
2022-10-22T21:01:38.949Z,69.22
2022-10-22T21:04:06.126Z,67.30
2022-10-22T21:06:33.020Z,69.40
2022-10-22T21:08:59.703Z,69.66
2022-10-22T21:11:27.504Z,69.59
2022-10-22T21:13:53.997Z,70.29
2022-10-22T21:16:20.385Z,70.31
2022-10-22T21:18:46.932Z,71.93
2022-10-22T21:21:13.378Z,72.97
2022-10-22T21:23:39.932Z,73.19
2022-10-22T21:26:06.681Z,74.32
2022-10-22T21:28:36.192Z,75.35
2022-10-22T21:31:03.036Z,76.35
2022-10-22T21:33:29.611Z,75.86
2022-10-22T21:35:56.947Z,73.92
2022-10-22T21:38:24.790Z,74.11
2022-10-22T21:40:51.342Z,73.72
2022-10-22T21:43:18.064Z,73.48
2022-10-22T21:45:45.782Z,73.93
2022-10-22T21:48:12.945Z,73.71
2022-10-22T21:50:39.987Z,74.03
2022-10-22T21:53:06.466Z,73.07
2022-10-22T21:55:37.853Z,72.73
2022-10-22T21:58:04.256Z,73.04
2022-10-22T22:00:30.681Z,73.22
2022-10-22T22:02:58.519Z,72.63
2022-10-22T22:05:25.038Z,72.79
2022-10-22T22:07:51.959Z,72.52
2022-10-22T22:10:18.525Z,71.93
2022-10-22T22:12:45.060Z,72.63
2022-10-22T22:15:11.592Z,72.65
2022-10-22T22:17:38.046Z,73.14
2022-10-22T22:20:06.894Z,72.75
2022-10-22T22:22:33.312Z,72.57
2022-10-22T22:24:59.713Z,73.18
2022-10-22T22:27:26.217Z,72.59
2022-10-22T22:29:54.057Z,73.18
2022-10-22T22:32:20.616Z,72.96
2022-10-22T22:34:46.984Z,73.51
2022-10-22T22:37:14.806Z,73.58
2022-10-22T22:39:41.500Z,72.84
2022-10-22T22:42:07.887Z,74.20
2022-10-22T22:44:34.279Z,72.79
2022-10-22T22:47:00.659Z,75.58
2022-10-22T22:49:27.048Z,74.04
2022-10-22T22:51:53.464Z,72.60
2022-10-22T22:54:21.252Z,73.17
2022-10-22T22:56:49.865Z,73.18
2022-10-22T22:59:16.265Z,73.28
2022-10-22T23:01:42.738Z,72.77
2022-10-22T23:04:12.071Z,72.74
2022-10-22T23:06:39.153Z,75.93
2022-10-22T23:09:07.349Z,76.30
2022-10-22T23:11:35.542Z,73.58
2022-10-22T23:14:04.310Z,73.45
2022-10-22T23:16:32.666Z,73.68
2022-10-22T23:19:00.429Z,72.79
2022-10-22T23:21:28.642Z,73.14
2022-10-22T23:23:57.554Z,72.76
2022-10-22T23:26:25.860Z,72.09
2022-10-22T23:28:54.390Z,73.01
2022-10-22T23:31:21.541Z,72.65
2022-10-22T23:33:48.468Z,73.09
2022-10-22T23:36:14.873Z,73.11
2022-10-22T23:38:41.734Z,72.86
2022-10-22T23:41:08.787Z,72.58
2022-10-22T23:43:36.227Z,72.22
2022-10-22T23:46:04.939Z,72.20
2022-10-22T23:48:31.400Z,72.73
2022-10-22T23:50:57.855Z,72.76
2022-10-22T23:53:24.316Z,72.90
2022-10-22T23:55:50.695Z,72.71
2022-10-22T23:58:17.077Z,73.12
